createdAt,value
2023-01-21T00:04:48.046Z,78.25
2023-01-21T00:10:10.365Z,78.39
2023-01-21T00:15:32.248Z,78.15
2023-01-21T00:20:54.005Z,78.19
2023-01-21T00:26:15.897Z,77.87
2023-01-21T00:31:37.870Z,78.09
2023-01-21T00:37:00.046Z,78.06
2023-01-21T00:42:22.177Z,78.49
2023-01-21T00:47:46.228Z,78.33
2023-01-21T00:53:08.144Z,78.85
2023-01-21T00:58:30.590Z,78.44
2023-01-21T01:03:52.342Z,78.25
2023-01-21T01:09:14.132Z,78.14
2023-01-21T01:14:36.589Z,78.34
2023-01-21T01:19:58.423Z,78.59
2023-01-21T01:25:20.234Z,78.83
2023-01-21T01:30:42.298Z,78.74
2023-01-21T01:36:10.594Z,78.72
2023-01-21T01:41:35.161Z,78.90
2023-01-21T01:46:58.695Z,78.50
2023-01-21T01:52:22.228Z,78.55
2023-01-21T01:57:47.636Z,78.10
2023-01-21T02:03:28.492Z,77.86
2023-01-21T02:08:51.539Z,77.49
2023-01-21T02:14:13.572Z,77.56
2023-01-21T02:19:44.666Z,77.56
2023-01-21T02:25:44.326Z,77.41
2023-01-21T02:31:15.280Z,77.20
2023-01-21T02:36:55.162Z,76.85
2023-01-21T02:42:30.748Z,77.01
2023-01-21T02:48:09.355Z,77.19
2023-01-21T02:53:34.200Z,76.95
2023-01-21T02:59:03.752Z,77.10
2023-01-21T03:04:57.205Z,76.98
2023-01-21T03:10:29.204Z,76.71
2023-01-21T03:16:13.376Z,76.46
2023-01-21T03:21:35.652Z,76.58
2023-01-21T03:27:00.191Z,76.43
2023-01-21T03:32:22.860Z,75.99
2023-01-21T03:37:53.161Z,75.63
2023-01-21T03:43:15.252Z,76.00
2023-01-21T03:48:48.952Z,75.94
2023-01-21T03:54:10.549Z,75.73
2023-01-21T03:59:32.583Z,76.07
2023-01-21T04:04:54.304Z,76.08
2023-01-21T04:10:17.341Z,75.80
2023-01-21T04:15:39.151Z,75.49
2023-01-21T04:21:01.038Z,75.65
2023-01-21T04:26:23.047Z,75.29
2023-01-21T04:31:46.438Z,75.30
2023-01-21T04:37:07.900Z,74.86
2023-01-21T04:42:29.869Z,74.59
2023-01-21T04:47:51.948Z,74.62
2023-01-21T04:53:14.082Z,74.63
2023-01-21T04:58:36.205Z,74.39
2023-01-21T05:03:59.942Z,74.32
2023-01-21T05:09:21.673Z,74.55
2023-01-21T05:14:43.761Z,74.55
2023-01-21T05:20:06.431Z,74.30
2023-01-21T05:25:28.285Z,74.38
2023-01-21T05:30:50.100Z,74.53
2023-01-21T05:36:12.087Z,74.36
2023-01-21T05:41:34.234Z,74.20
2023-01-21T05:46:55.775Z,74.23
2023-01-21T05:52:17.509Z,74.17
2023-01-21T05:57:39.104Z,74.24
2023-01-21T06:03:02.062Z,73.79
2023-01-21T06:08:24.327Z,74.26
2023-01-21T06:13:45.837Z,74.38
2023-01-21T06:19:08.282Z,74.45
2023-01-21T06:24:30.204Z,74.36
2023-01-21T06:29:52.115Z,74.07
2023-01-21T06:35:13.838Z,73.89
2023-01-21T06:40:35.691Z,74.11
2023-01-21T06:45:57.767Z,74.02
2023-01-21T06:51:20.063Z,74.30
2023-01-21T06:56:43.769Z,74.15
2023-01-21T07:02:05.697Z,74.03
2023-01-21T07:07:27.660Z,74.26
2023-01-21T07:12:49.411Z,74.50
2023-01-21T07:18:11.187Z,73.88
2023-01-21T07:23:32.814Z,74.17
2023-01-21T07:28:54.787Z,74.33
2023-01-21T07:34:16.434Z,74.68
2023-01-21T07:39:38.233Z,74.32
2023-01-21T07:45:02.938Z,74.71
2023-01-21T07:50:24.870Z,74.27
2023-01-21T07:55:46.703Z,74.51
2023-01-21T08:01:10.155Z,74.45
2023-01-21T08:06:31.763Z,74.29
2023-01-21T08:11:53.796Z,74.29
2023-01-21T08:17:15.781Z,74.15
2023-01-21T08:22:38.422Z,74.21
2023-01-21T08:28:00.417Z,73.93
2023-01-21T08:33:22.329Z,73.97
2023-01-21T08:38:46.692Z,73.84
2023-01-21T08:44:10.146Z,73.96
2023-01-21T08:49:31.935Z,73.39
2023-01-21T08:54:54.136Z,73.20
2023-01-21T09:00:16.985Z,73.41
2023-01-21T09:05:38.807Z,73.25
2023-01-21T09:11:01.574Z,73.42
2023-01-21T09:16:23.472Z,73.24
2023-01-21T09:21:45.335Z,73.05
2023-01-21T09:27:07.928Z,73.39
2023-01-21T09:32:29.855Z,73.17
2023-01-21T09:37:51.382Z,72.91
2023-01-21T09:43:40.663Z,72.62
2023-01-21T09:49:03.032Z,72.42
2023-01-21T09:54:26.868Z,72.33
2023-01-21T10:00:10.573Z,72.15
2023-01-21T10:05:38.020Z,72.18
2023-01-21T10:11:35.284Z,72.00
2023-01-21T10:17:07.550Z,71.52
2023-01-21T10:22:29.585Z,71.26
2023-01-21T10:27:52.308Z,70.88
2023-01-21T10:33:19.674Z,70.71
2023-01-21T10:39:12.997Z,71.00
2023-01-21T10:44:49.016Z,70.96
2023-01-21T10:50:29.770Z,70.74
2023-01-21T10:56:24.505Z,70.78
2023-01-21T11:01:49.456Z,70.54
2023-01-21T11:07:14.008Z,70.31
2023-01-21T11:12:36.124Z,70.31
2023-01-21T11:17:59.158Z,70.33
2023-01-21T11:23:34.866Z,70.10
2023-01-21T11:29:13.677Z,69.93
2023-01-21T11:34:35.250Z,69.84
2023-01-21T11:39:59.831Z,69.64
2023-01-21T11:45:31.760Z,69.99
2023-01-21T11:51:07.205Z,69.98
2023-01-21T11:56:29.366Z,69.99
2023-01-21T12:01:58.211Z,69.94
2023-01-21T12:07:22.774Z,69.69
2023-01-21T12:13:05.447Z,69.98
2023-01-21T12:18:58.709Z,69.87
2023-01-21T12:24:23.332Z,69.98
2023-01-21T12:29:57.276Z,69.74
2023-01-21T12:35:34.589Z,69.70
2023-01-21T12:41:01.652Z,69.45
2023-01-21T12:46:27.829Z,69.42
2023-01-21T12:51:54.659Z,69.47
2023-01-21T12:57:29.404Z,69.15
2023-01-21T13:02:58.656Z,68.96
2023-01-21T13:08:41.261Z,69.21
2023-01-21T13:14:09.333Z,69.00
2023-01-21T13:19:31.043Z,69.06
2023-01-21T13:25:04.912Z,69.16
2023-01-21T13:30:30.147Z,69.25
2023-01-21T13:36:20.795Z,69.45
2023-01-21T13:42:08.725Z,69.32
2023-01-21T13:47:40.484Z,69.43
2023-01-21T13:53:30.502Z,69.29
2023-01-21T13:59:07.071Z,69.14
2023-01-21T14:04:46.472Z,69.52
2023-01-21T14:10:17.204Z,69.80
2023-01-21T14:16:08.691Z,69.46
2023-01-21T14:21:56.172Z,69.51
2023-01-21T14:27:24.776Z,69.47
2023-01-21T14:32:55.386Z,69.41
2023-01-21T14:38:52.237Z,69.03
2023-01-21T14:44:39.117Z,69.08
2023-01-21T14:50:01.098Z,68.97
2023-01-21T14:55:31.548Z,68.74
2023-01-21T15:00:53.999Z,69.05
2023-01-21T15:06:20.119Z,68.89
2023-01-21T15:11:44.267Z,68.98
2023-01-21T15:17:47.571Z,69.26
2023-01-21T15:23:21.409Z,69.37
2023-01-21T15:28:47.461Z,69.55
2023-01-21T15:34:15.535Z,69.49
2023-01-21T15:39:37.128Z,69.45
2023-01-21T15:45:12.006Z,70.05
2023-01-21T15:50:49.198Z,69.93
2023-01-21T15:56:23.253Z,69.97
2023-01-21T16:01:46.291Z,70.11
2023-01-21T16:07:24.376Z,70.20
2023-01-21T16:12:58.449Z,70.43
2023-01-21T16:18:26.797Z,70.49
2023-01-21T16:23:50.932Z,70.38
2023-01-21T16:29:14.070Z,70.59
2023-01-21T16:34:42.771Z,70.72
2023-01-21T16:40:23.933Z,71.16
2023-01-21T16:45:51.042Z,70.85
2023-01-21T16:51:18.502Z,70.96
2023-01-21T16:56:47.897Z,70.70
2023-01-21T17:02:17.473Z,70.77
2023-01-21T17:08:00.637Z,70.70
2023-01-21T17:13:22.457Z,71.26
2023-01-21T17:18:54.426Z,71.26
2023-01-21T17:24:18.260Z,71.11
2023-01-21T17:29:40.189Z,71.23
2023-01-21T17:35:03.416Z,71.15
2023-01-21T17:40:32.615Z,71.36
2023-01-21T17:45:56.471Z,71.54
2023-01-21T17:51:25.081Z,71.47
2023-01-21T17:56:54.519Z,72.61
2023-01-21T18:02:22.076Z,73.29
2023-01-21T18:07:44.313Z,73.51
2023-01-21T18:13:06.890Z,73.94
2023-01-21T18:18:34.994Z,73.92
2023-01-21T18:23:56.842Z,74.02
2023-01-21T18:29:19.656Z,74.14
2023-01-21T18:34:41.886Z,74.27
2023-01-21T18:40:05.894Z,74.00
2023-01-21T18:45:28.674Z,73.58
2023-01-21T18:50:50.589Z,73.49
2023-01-21T18:56:13.410Z,73.81
2023-01-21T19:01:35.481Z,73.15
2023-01-21T19:06:57.390Z,73.12
2023-01-21T19:12:21.365Z,73.04
2023-01-21T19:17:44.204Z,73.12
2023-01-21T19:23:15.769Z,72.90
2023-01-21T19:28:39.615Z,73.28
2023-01-21T19:34:01.788Z,73.13
2023-01-21T19:39:24.064Z,72.78
2023-01-21T19:44:45.725Z,72.90
2023-01-21T19:50:12.619Z,73.67
2023-01-21T19:55:39.030Z,74.56
2023-01-21T20:01:02.938Z,74.84
2023-01-21T20:06:25.854Z,74.84
2023-01-21T20:11:47.966Z,74.98
2023-01-21T20:17:11.711Z,74.88
2023-01-21T20:22:33.879Z,74.67
2023-01-21T20:27:58.367Z,74.43
2023-01-21T20:33:22.477Z,74.01
2023-01-21T20:38:44.391Z,74.26
2023-01-21T20:44:06.083Z,74.41
2023-01-21T20:49:27.643Z,74.64
2023-01-21T20:54:49.861Z,74.61
2023-01-21T21:00:23.191Z,73.94
2023-01-21T21:05:48.848Z,73.61
2023-01-21T21:11:11.461Z,74.03
2023-01-21T21:16:34.269Z,74.96
2023-01-21T21:21:57.390Z,75.12
2023-01-21T21:27:19.531Z,74.94
2023-01-21T21:32:43.249Z,75.13
2023-01-21T21:38:10.150Z,75.46
2023-01-21T21:43:36.050Z,75.12
2023-01-21T21:48:58.450Z,74.81
2023-01-21T21:54:20.244Z,74.48
2023-01-21T21:59:42.881Z,74.96
2023-01-21T22:05:05.346Z,75.15
2023-01-21T22:10:27.553Z,75.18
2023-01-21T22:15:56.824Z,75.05
2023-01-21T22:21:23.315Z,74.89
2023-01-21T22:26:45.325Z,74.49
2023-01-21T22:32:09.407Z,74.44
2023-01-21T22:37:31.183Z,74.71
2023-01-21T22:42:52.992Z,74.98
2023-01-21T22:48:15.446Z,74.40
2023-01-21T22:53:37.457Z,74.28
2023-01-21T22:58:59.813Z,74.77
2023-01-21T23:04:21.597Z,74.30
2023-01-21T23:09:43.157Z,74.88
2023-01-21T23:15:05.443Z,74.72
2023-01-21T23:20:29.022Z,74.54
2023-01-21T23:25:52.661Z,74.67
2023-01-21T23:31:16.790Z,75.30
2023-01-21T23:36:40.110Z,75.23
2023-01-21T23:42:01.959Z,75.73
2023-01-21T23:47:24.147Z,75.67
2023-01-21T23:52:45.834Z,75.62
2023-01-21T23:58:07.562Z,75.74
